Página principal
METAR-TAF:

METAR-TAF

Aeroportos :

Aeroporto de Kokshetau

Kokshetau, Cazaquistão

latitude: 53-19-48N, longitude: 069-35-48E, altura: 270 m

Observação actual do tempo

O boletim foi feito há 7 horas e 53 minutos, às 11:30 UTC
Vento 8 kt de oeste
Temperatura -7°C
Humidade 67%
Pressão 1032 hPa
Visibilidade 10 km ou mais
sem nuvens abaixo de 1500 metros e sem cumulonimbus

METAR: UACK 141130Z 26004MPS CAVOK M07/M12 Q1032 R20/920250 NOSIG RMK QFE750/1000

Hora: 01:23 (19:23 UTC)

Previsão

O boletim foi feito há 11 horas e 23 minutos, às 08:00 UTC
Previsão válida de 14 às 09 UTC a 14 às 18 UTC
Vento 17 kt de oeste com rajadas de 27 kt
Visibilidade 10 km ou mais
Nuvens dispersasa uma altura de 4000 ft
Nuvens fragmentadasa uma altura de 10000 ft
Temporariamente
de 14 às 09 UTC a 14 às 18 UTC
Vento 14 kt de oes-sudoeste

TAF: UACK 140800Z 1409/1418 27009G14MPS 9999 SCT040 BKN100 TEMPO 1409/1418 24007MPS

Observações e previsões do tempo de mais de 4000 aeroportos (mensagens METAR e TAF).

As estações disponíveis são os pontos amarelos e vermelhos sobre o mapa.

Mova o rato sobre o mapa para ver o nome da estação.

Depois clique no ponto para visualizar as observações e previsões meteorológicas.

Para alterar o mapa : clique nos botões verdes com uma cruz preta para aumentar o zoom; no botão verde com uma pitada de zoom; ou nas setas verdes para mapas adjacentes.


METAR-TAF: